Time;durP1;ratioP1;P1;durP2;ratioP2;P2;SDS_P1;SDS_P2;PMS_P1;PMS_P2;Temp;Humidity;BMP_temperature;BMP_pressure;BME280_temperature;BME280_humidity;BME280_pressure;Samples;Min_cycle;Max_cycle;Signal;HPM_P1;HPM_P2
2022/08/19 00:01:38;;;;;;;0.00;0.00;;;21.70;99.90;;;;;;5038104;28;20199;-68
2022/08/19 00:04:09;;;;;;;0.00;0.00;;;21.70;99.90;;;;;;5044608;28;20226;-68
2022/08/19 00:06:38;;;;;;;0.00;0.00;;;21.50;99.90;;;;;;5046387;28;20215;-69
2022/08/19 00:09:07;;;;;;;0.00;0.00;;;21.50;99.90;;;;;;5045234;28;20196;-69
2022/08/19 00:11:37;;;;;;;0.00;0.00;;;21.60;99.90;;;;;;5039282;28;20200;-69
2022/08/19 00:14:05;;;;;;;0.00;0.00;;;21.60;99.90;;;;;;5042883;28;20273;-69
2022/08/19 00:16:33;;;;;;;0.00;0.00;;;;;;;;;;5045502;28;20238;-68
2022/08/19 00:19:00;;;;;;;0.00;0.00;;;;;;;;;;5043744;28;20628;-68
2022/08/19 00:21:29;;;;;;;0.00;0.00;;;;;;;;;;5028747;28;20296;-68
2022/08/19 00:23:58;;;;;;;0.00;0.00;;;;;;;;;;5030320;28;20223;-68
2022/08/19 00:26:25;;;;;;;0.00;0.00;;;21.60;99.90;;;;;;5034414;28;20195;-69
2022/08/19 00:28:52;;;;;;;0.00;0.00;;;21.50;99.90;;;;;;5026302;28;20204;-69
2022/08/19 00:31:20;;;;;;;0.00;0.00;;;21.40;99.90;;;;;;5030457;28;20196;-69
2022/08/19 00:33:47;;;;;;;0.00;0.00;;;21.30;99.90;;;;;;5032994;28;20210;-68
2022/08/19 00:36:14;;;;;;;0.00;0.00;;;21.30;99.90;;;;;;5037168;28;20196;-69
2022/08/19 00:38:43;;;;;;;0.00;0.00;;;21.30;99.90;;;;;;5039306;28;20195;-69
2022/08/19 00:41:14;;;;;;;0.00;0.00;;;21.20;99.90;;;;;;5033520;28;20200;-69
2022/08/19 00:46:09;;;;;;;0.00;0.00;;;21.20;99.90;;;;;;5031045;28;20207;-69
2022/08/19 00:48:36;;;;;;;0.00;0.00;;;21.10;99.90;;;;;;5007108;28;20200;-70
2022/08/19 00:51:06;;;;;;;0.00;0.00;;;21.10;99.90;;;;;;5009774;28;20242;-69
2022/08/19 00:53:34;;;;;;;0.00;0.00;;;21.10;99.90;;;;;;5010943;28;20362;-69
2022/08/19 00:56:06;;;;;;;0.00;0.00;;;21.00;99.90;;;;;;5011521;28;20274;-70
2022/08/19 00:58:35;;;;;;;0.00;0.00;;;21.00;99.90;;;;;;5009240;28;20203;-70
2022/08/19 01:01:05;;;;;;;0.00;0.00;;;21.00;99.90;;;;;;5014103;28;20294;-70
2022/08/19 01:03:31;;;;;;;0.00;0.00;;;20.90;99.90;;;;;;5016832;28;20238;-70
2022/08/19 01:05:59;;;;;;;0.00;0.00;;;20.90;99.90;;;;;;5008148;28;20196;-70
2022/08/19 01:08:27;;;;;;;0.00;0.00;;;20.90;99.90;;;;;;5008806;28;20241;-71
2022/08/19 01:10:56;;;;;;;0.00;0.00;;;20.90;99.90;;;;;;5043591;28;20201;-70
2022/08/19 01:13:27;;;;;;;0.00;0.00;;;20.90;99.90;;;;;;5012042;28;20310;-70
2022/08/19 01:15:56;;;;;;;0.00;0.00;;;;;;;;;;5017479;28;20285;-70
2022/08/19 01:18:26;;;;;;;0.00;0.00;;;20.80;99.90;;;;;;5008765;28;20223;-70
2022/08/19 01:20:57;;;;;;;0.00;0.00;;;20.90;99.90;;;;;;5003513;28;20207;-69
2022/08/19 01:23:42;;;;;;;0.00;0.00;;;20.80;99.90;;;;;;4998876;28;20203;-69
2022/08/19 01:26:10;;;;;;;0.00;0.00;;;;;;;;;;5012597;28;20302;-69
2022/08/19 01:28:38;;;;;;;0.00;0.00;;;20.80;99.90;;;;;;5003756;28;20227;-69
2022/08/19 01:31:06;;;;;;;0.00;0.00;;;20.80;99.90;;;;;;5039253;28;20205;-69
2022/08/19 01:33:33;;;;;;;0.00;0.00;;;20.80;99.90;;;;;;5014558;28;20291;-69
2022/08/19 01:36:06;;;;;;;0.00;0.00;;;20.80;99.90;;;;;;5021813;28;20215;-69
2022/08/19 01:38:38;;;;;;;0.00;0.00;;;20.80;99.90;;;;;;5006874;28;20712;-70
2022/08/19 01:41:06;;;;;;;0.00;0.00;;;20.70;99.90;;;;;;5022029;28;20207;-69
2022/08/19 01:43:33;;;;;;;0.00;0.00;;;20.70;99.90;;;;;;5011357;28;20574;-70
2022/08/19 01:46:00;;;;;;;0.00;0.00;;;20.70;99.90;;;;;;5019715;28;20207;-69
2022/08/19 01:48:33;;;;;;;0.00;0.00;;;20.70;99.90;;;;;;5029653;28;20196;-69
2022/08/19 01:51:00;;;;;;;0.00;0.00;;;20.70;99.90;;;;;;5023486;28;20242;-69
2022/08/19 01:53:27;;;;;;;0.00;0.00;;;20.70;99.90;;;;;;5028387;28;20276;-69
2022/08/19 01:55:55;;;;;;;0.00;0.00;;;20.70;99.90;;;;;;5018704;28;20309;-69
2022/08/19 01:58:29;;;;;;;0.00;0.00;;;20.70;99.90;;;;;;5013735;28;20252;-69
2022/08/19 02:00:58;;;;;;;0.00;0.00;;;20.70;99.90;;;;;;5033498;28;20187;-70
2022/08/19 02:03:25;;;;;;;0.00;0.00;;;20.70;99.90;;;;;;5017305;28;20223;-69
2022/08/19 02:05:56;;;;;;;0.00;0.00;;;20.60;99.90;;;;;;5015703;28;20216;-69
2022/08/19 02:08:23;;;;;;;0.00;0.00;;;20.60;99.90;;;;;;5026670;28;20214;-69
2022/08/19 02:10:50;;;;;;;0.00;0.00;;;20.60;99.90;;;;;;5023712;28;20210;-69
2022/08/19 02:13:19;;;;;;;0.00;0.00;;;20.60;99.90;;;;;;5019435;28;20250;-69
2022/08/19 02:15:47;;;;;;;0.00;0.00;;;20.60;99.90;;;;;;5022127;28;20220;-69
2022/08/19 02:18:15;;;;;;;0.00;0.00;;;20.60;99.90;;;;;;5045346;28;20203;-69
2022/08/19 02:20:44;;;;;;;0.00;0.00;;;20.60;99.90;;;;;;5040952;28;20192;-70
2022/08/19 02:23:12;;;;;;;0.00;0.00;;;20.60;99.90;;;;;;5006018;28;20206;-70
2022/08/19 02:25:41;;;;;;;0.00;0.00;;;20.60;99.90;;;;;;5030291;28;20222;-69
2022/08/19 02:28:08;;;;;;;0.00;0.00;;;20.60;99.90;;;;;;5037230;28;20254;-69
2022/08/19 02:30:37;;;;;;;0.00;0.00;;;20.60;99.90;;;;;;5019171;28;20203;-69
2022/08/19 02:33:05;;;;;;;0.00;0.00;;;20.60;99.90;;;;;;5012431;28;20219;-69
2022/08/19 02:35:32;;;;;;;0.00;0.00;;;20.60;99.90;;;;;;5033554;28;20214;-69
2022/08/19 02:40:50;;;;;;;0.00;0.00;;;20.60;99.90;;;;;;5030968;28;20200;-69
2022/08/19 02:43:18;;;;;;;0.00;0.00;;;;;;;;;;5014371;28;20195;-69
2022/08/19 02:45:47;;;;;;;0.00;0.00;;;19.20;99.90;;;;;;5012360;28;20252;-69
2022/08/19 02:48:16;;;;;;;0.00;0.00;;;20.50;99.90;;;;;;5012172;28;20203;-69
2022/08/19 02:50:42;;;;;;;0.00;0.00;;;20.50;99.90;;;;;;5020441;28;20213;-69
2022/08/19 02:53:10;;;;;;;0.00;0.00;;;20.50;99.90;;;;;;5024655;28;20196;-69
2022/08/19 02:55:43;;;;;;;0.00;0.00;;;20.50;99.90;;;;;;5043656;28;20281;-69
2022/08/19 02:58:10;;;;;;;0.00;0.00;;;20.40;99.90;;;;;;5023552;28;20325;-69
2022/08/19 03:00:43;;;;;;;0.00;0.00;;;20.40;99.90;;;;;;5014257;28;20191;-69
2022/08/19 03:03:12;;;;;;;0.00;0.00;;;20.40;99.90;;;;;;5021850;28;20337;-69
2022/08/19 03:05:40;;;;;;;0.00;0.00;;;20.40;99.90;;;;;;5037869;28;20219;-69
2022/08/19 03:08:09;;;;;;;0.00;0.00;;;20.40;99.90;;;;;;5021826;28;20202;-69
2022/08/19 03:10:41;;;;;;;0.00;0.00;;;;;;;;;;5006627;28;20291;-69
2022/08/19 03:13:09;;;;;;;0.00;0.00;;;20.40;99.90;;;;;;5034892;28;20199;-69
2022/08/19 03:15:39;;;;;;;0.00;0.00;;;20.30;99.90;;;;;;5041310;28;20223;-71
2022/08/19 03:18:06;;;;;;;0.00;0.00;;;20.30;99.90;;;;;;5028939;28;20230;-69
2022/08/19 03:20:35;;;;;;;0.00;0.00;;;20.30;99.90;;;;;;5039197;28;20567;-69
2022/08/19 03:23:01;;;;;;;0.00;0.00;;;20.30;99.90;;;;;;5032682;28;20242;-70
2022/08/19 03:25:28;;;;;;;0.00;0.00;;;20.30;99.90;;;;;;5040402;28;20288;-70
2022/08/19 03:27:55;;;;;;;0.00;0.00;;;20.30;99.90;;;;;;5043000;28;20188;-70
2022/08/19 03:30:22;;;;;;;0.00;0.00;;;20.30;99.90;;;;;;5023730;28;20271;-70
2022/08/19 03:32:49;;;;;;;0.00;0.00;;;20.30;99.90;;;;;;5021217;28;20203;-70
2022/08/19 03:35:17;;;;;;;0.00;0.00;;;20.20;99.90;;;;;;5009082;28;20219;-70
2022/08/19 03:37:45;;;;;;;0.00;0.00;;;20.30;99.90;;;;;;5015483;28;20256;-69
2022/08/19 03:40:13;;;;;;;0.00;0.00;;;20.20;99.90;;;;;;5027613;28;20224;-70
2022/08/19 03:42:42;;;;;;;0.00;0.00;;;20.20;99.90;;;;;;5017133;28;20271;-69
2022/08/19 03:45:10;;;;;;;0.00;0.00;;;20.20;99.90;;;;;;5030218;28;20281;-70
2022/08/19 03:47:37;;;;;;;0.00;0.00;;;20.20;99.90;;;;;;5053175;22;20201;-75
2022/08/19 03:50:05;;;;;;;0.00;0.00;;;20.20;99.90;;;;;;5070393;28;20202;-75
2022/08/19 03:52:32;;;;;;;0.00;0.00;;;20.20;99.90;;;;;;5074253;28;20202;-75
2022/08/19 03:55:00;;;;;;;0.00;0.00;;;20.20;99.90;;;;;;5069603;28;20194;-75
2022/08/19 03:57:27;;;;;;;0.00;0.00;;;20.20;99.90;;;;;;5077689;28;20232;-74
2022/08/19 03:59:54;;;;;;;0.00;0.00;;;20.20;99.90;;;;;;5075764;28;20206;-75
2022/08/19 04:02:21;;;;;;;0.00;0.00;;;20.20;99.90;;;;;;5078198;28;20205;-75
2022/08/19 04:04:48;;;;;;;0.00;0.00;;;20.10;99.90;;;;;;5081686;28;20226;-75
2022/08/19 04:07:17;;;;;;;0.00;0.00;;;20.10;99.90;;;;;;5080207;28;20229;-74
2022/08/19 04:09:45;;;;;;;0.00;0.00;;;20.10;99.90;;;;;;5084489;28;20205;-75
2022/08/19 04:12:14;;;;;;;0.00;0.00;;;20.10;99.90;;;;;;5076085;28;20233;-74
2022/08/19 04:14:44;;;;;;;0.00;0.00;;;20.00;99.90;;;;;;5064705;28;20203;-74
2022/08/19 04:17:12;;;;;;;0.00;0.00;;;20.00;99.90;;;;;;5073939;28;20225;-75
2022/08/19 04:19:39;;;;;;;0.00;0.00;;;20.00;99.90;;;;;;5082258;28;20215;-75
2022/08/19 04:22:06;;;;;;;0.00;0.00;;;20.00;99.90;;;;;;5072156;28;20205;-74
2022/08/19 04:24:35;;;;;;;0.00;0.00;;;19.90;99.90;;;;;;5073940;28;20198;-74
2022/08/19 04:27:05;;;;;;;0.00;0.00;;;20.00;99.90;;;;;;5073081;28;20291;-74
2022/08/19 04:29:34;;;;;;;0.00;0.00;;;19.90;99.90;;;;;;5074675;28;20205;-73
2022/08/19 04:32:01;;;;;;;0.00;0.00;;;19.90;99.90;;;;;;5077315;28;20206;-72
2022/08/19 04:34:29;;;;;;;0.00;0.00;;;19.90;99.90;;;;;;5071860;28;20208;-73
2022/08/19 04:36:58;;;;;;;0.00;0.00;;;19.90;99.90;;;;;;5072313;28;20656;-72
2022/08/19 04:42:38;;;;;;;0.00;0.00;;;19.90;99.90;;;;;;5068177;28;20219;-74
2022/08/19 04:45:03;;;;;;;0.00;0.00;;;19.90;99.90;;;;;;5095853;28;20210;-74
2022/08/19 04:47:32;;;;;;;0.00;0.00;;;19.90;99.90;;;;;;5068393;28;20226;-73
2022/08/19 04:49:59;;;;;;;0.00;0.00;;;19.90;99.90;;;;;;5072278;28;20214;-74
2022/08/19 04:52:26;;;;;;;0.00;0.00;;;19.90;99.90;;;;;;5073527;28;20218;-73
2022/08/19 04:54:55;;;;;;;0.00;0.00;;;20.00;99.90;;;;;;5066574;28;20195;-70
2022/08/19 04:57:22;;;;;;;0.00;0.00;;;20.00;99.90;;;;;;5059548;28;20234;-71
2022/08/19 04:59:54;;;;;;;0.00;0.00;;;20.00;99.90;;;;;;5070347;28;20256;-72
2022/08/19 05:02:25;;;;;;;0.00;0.00;;;20.00;99.90;;;;;;5077553;28;20217;-71
2022/08/19 05:04:52;;;;;;;0.00;0.00;;;20.00;99.90;;;;;;5072822;28;20197;-71
2022/08/19 05:07:19;;;;;;;0.00;0.00;;;20.00;99.90;;;;;;5065743;28;20219;-72
2022/08/19 05:09:46;;;;;;;0.00;0.00;;;20.00;99.90;;;;;;5065206;28;20290;-70
2022/08/19 05:12:13;;;;;;;0.00;0.00;;;19.90;99.90;;;;;;5079359;28;20206;-70
2022/08/19 05:14:40;;;;;;;0.00;0.00;;;20.00;99.90;;;;;;5080936;28;20362;-71
2022/08/19 05:17:07;;;;;;;0.00;0.00;;;20.00;99.90;;;;;;5079076;28;20308;-71
2022/08/19 05:22:34;;;;;;;0.00;0.00;;;20.00;99.90;;;;;;5063742;28;20198;-70
2022/08/19 05:25:05;;;;;;;0.00;0.00;;;20.00;99.90;;;;;;5066809;28;20214;-71
2022/08/19 05:27:32;;;;;;;0.00;0.00;;;20.00;99.90;;;;;;5071992;28;20303;-71
2022/08/19 05:29:59;;;;;;;0.00;0.00;;;20.00;99.90;;;;;;5075423;28;20207;-71
2022/08/19 05:32:26;;;;;;;0.00;0.00;;;20.00;99.90;;;;;;5073110;28;20232;-71
2022/08/19 05:34:55;;;;;;;0.00;0.00;;;20.00;99.90;;;;;;5072146;28;20195;-70
2022/08/19 05:37:23;;;;;;;0.00;0.00;;;20.00;99.90;;;;;;5072873;28;20253;-69
2022/08/19 05:39:50;;;;;;;0.00;0.00;;;20.00;99.90;;;;;;5078785;28;20325;-70
2022/08/19 05:42:18;;;;;;;0.00;0.00;;;20.00;99.90;;;;;;5073265;28;20321;-71
2022/08/19 05:44:46;;;;;;;0.00;0.00;;;20.00;99.90;;;;;;5073857;28;20226;-73
2022/08/19 05:47:15;;;;;;;0.00;0.00;;;20.00;99.90;;;;;;5073474;28;20241;-72
2022/08/19 05:49:43;;;;;;;0.00;0.00;;;20.00;99.90;;;;;;5068900;28;20305;-74
2022/08/19 05:52:15;;;;;;;0.00;0.00;;;20.00;99.90;;;;;;5073550;28;20696;-73
2022/08/19 05:54:42;;;;;;;0.00;0.00;;;20.10;99.90;;;;;;5065628;28;20655;-72
2022/08/19 05:57:10;;;;;;;0.00;0.00;;;20.00;99.90;;;;;;5063323;28;20214;-72
2022/08/19 05:59:37;;;;;;;0.00;0.00;;;20.10;99.90;;;;;;5066467;28;20254;-72
2022/08/19 06:02:06;;;;;;;0.00;0.00;;;20.10;99.90;;;;;;5076147;28;20260;-74
2022/08/19 06:04:33;;;;;;;0.00;0.00;;;20.10;99.90;;;;;;5074585;28;20229;-72
2022/08/19 06:07:01;;;;;;;0.00;0.00;;;20.00;99.90;;;;;;5074997;28;20205;-72
2022/08/19 06:09:30;;;;;;;0.00;0.00;;;20.00;99.90;;;;;;5074122;28;20194;-72
2022/08/19 06:11:59;;;;;;;0.00;0.00;;;20.10;99.90;;;;;;5081198;28;20232;-71
2022/08/19 06:14:28;;;;;;;0.00;0.00;;;20.10;99.90;;;;;;5078818;28;20209;-72
2022/08/19 06:16:56;;;;;;;0.00;0.00;;;20.00;99.90;;;;;;5070983;28;20191;-71
2022/08/19 06:19:25;;;;;;;0.00;0.00;;;20.00;99.90;;;;;;5072592;28;20228;-70
2022/08/19 06:21:53;;;;;;;0.00;0.00;;;20.10;99.90;;;;;;5063327;28;20289;-72
2022/08/19 06:24:24;;;;;;;0.00;0.00;;;22.30;99.90;;;;;;5075574;28;20209;-71
2022/08/19 06:26:55;;;;;;;0.00;0.00;;;20.00;99.90;;;;;;5071405;28;20260;-71
2022/08/19 06:29:25;;;;;;;0.00;0.00;;;20.00;99.90;;;;;;5062217;28;20210;-69
2022/08/19 06:31:55;;;;;;;0.00;0.00;;;20.00;99.90;;;;;;5074836;28;20209;-71
2022/08/19 06:34:24;;;;;;;0.00;0.00;;;20.00;99.90;;;;;;5067896;28;20266;-70
2022/08/19 06:36:52;;;;;;;0.00;0.00;;;20.00;99.90;;;;;;5075283;28;20203;-70
2022/08/19 06:39:22;;;;;;;0.00;0.00;;;20.00;99.90;;;;;;5077188;28;20222;-70
2022/08/19 06:41:52;;;;;;;0.00;0.00;;;20.00;99.90;;;;;;5066878;28;20667;-71
2022/08/19 06:44:23;;;;;;;0.00;0.00;;;20.10;99.90;;;;;;5069256;28;20210;-69
2022/08/19 06:46:50;;;;;;;0.00;0.00;;;20.00;99.90;;;;;;5062225;28;20326;-71
2022/08/19 06:49:18;;;;;;;0.00;0.00;;;20.00;99.90;;;;;;5067183;28;20211;-70
2022/08/19 06:51:47;;;;;;;0.00;0.00;;;20.00;99.90;;;;;;5073638;28;20204;-72
2022/08/19 06:54:15;;;;;;;0.00;0.00;;;20.00;99.90;;;;;;5076369;28;20206;-71
2022/08/19 06:56:45;;;;;;;0.00;0.00;;;19.90;99.90;;;;;;5077109;28;20255;-70
2022/08/19 06:59:14;;;;;;;0.00;0.00;;;19.90;99.90;;;;;;5068299;28;20225;-70
2022/08/19 07:01:45;;;;;;;0.00;0.00;;;19.90;99.90;;;;;;5081805;28;20312;-72
2022/08/19 07:04:13;;;;;;;0.00;0.00;;;19.90;99.90;;;;;;5068315;28;20224;-69
2022/08/19 07:06:40;;;;;;;0.00;0.00;;;19.90;99.90;;;;;;5080065;28;20473;-71
2022/08/19 07:09:09;;;;;;;0.00;0.00;;;19.90;99.90;;;;;;5071400;28;20227;-71
2022/08/19 07:11:36;;;;;;;0.00;0.00;;;19.90;99.90;;;;;;5073592;28;20198;-69
2022/08/19 07:14:03;;;;;;;0.00;0.00;;;19.80;99.90;;;;;;5064111;28;20276;-70
2022/08/19 07:16:31;;;;;;;0.00;0.00;;;19.90;99.90;;;;;;5082967;28;20213;-71
2022/08/19 07:19:00;;;;;;;0.00;0.00;;;19.90;99.90;;;;;;5084250;28;20287;-69
2022/08/19 07:21:29;;;;;;;0.00;0.00;;;19.90;99.90;;;;;;5069514;28;20184;-69
2022/08/19 07:23:57;;;;;;;0.00;0.00;;;19.90;99.90;;;;;;5082585;28;20288;-70
2022/08/19 07:26:27;;;;;;;0.00;0.00;;;19.90;99.90;;;;;;5074844;28;20289;-70
2022/08/19 07:28:56;;;;;;;0.00;0.00;;;19.90;99.90;;;;;;5073133;28;20320;-72
2022/08/19 07:31:25;;;;;;;0.00;0.00;;;20.00;99.90;;;;;;5080264;28;20198;-71
2022/08/19 07:33:55;;;;;;;0.00;0.00;;;20.00;99.90;;;;;;5066204;28;20235;-71
2022/08/19 07:36:28;;;;;;;0.00;0.00;;;20.10;99.90;;;;;;5066222;28;20281;-72
2022/08/19 07:38:55;;;;;;;0.00;0.00;;;20.10;99.90;;;;;;5071135;28;20230;-71
2022/08/19 07:41:25;;;;;;;0.00;0.00;;;20.20;99.90;;;;;;5076315;28;20229;-71
2022/08/19 07:43:53;;;;;;;0.00;0.00;;;20.20;99.90;;;;;;5075471;28;20218;-72
2022/08/19 07:46:21;;;;;;;0.00;0.00;;;20.20;99.90;;;;;;5067022;28;20218;-71
2022/08/19 07:48:50;;;;;;;0.00;0.00;;;20.20;99.90;;;;;;5066585;28;20320;-72
2022/08/19 07:51:19;;;;;;;0.00;0.00;;;20.20;99.90;;;;;;5076514;28;20199;-71
2022/08/19 07:53:49;;;;;;;0.00;0.00;;;20.30;99.90;;;;;;5076473;28;20232;-72
2022/08/19 07:56:19;;;;;;;0.00;0.00;;;20.30;99.90;;;;;;5081183;28;20194;-71
2022/08/19 07:58:48;;;;;;;0.00;0.00;;;20.30;99.90;;;;;;5068190;28;20222;-71
2022/08/19 08:01:18;;;;;;;0.00;0.00;;;20.30;99.90;;;;;;5076188;28;20194;-71
2022/08/19 08:09:31;;;;;;;0.00;0.00;;;20.30;99.90;;;;;;5003414;28;20185;-72
2022/08/19 08:12:00;;;;;;;0.00;0.00;;;20.30;99.90;;;;;;5062797;28;20310;-71
2022/08/19 08:14:31;;;;;;;0.00;0.00;;;20.30;99.90;;;;;;5077090;28;20229;-70
2022/08/19 08:16:58;;;;;;;0.00;0.00;;;20.30;99.90;;;;;;5086884;28;20202;-71
2022/08/19 08:19:27;;;;;;;0.00;0.00;;;20.30;99.90;;;;;;5072457;28;20217;-71
2022/08/19 08:21:56;;;;;;;0.00;0.00;;;20.30;99.90;;;;;;5065646;28;20221;-68
2022/08/19 08:24:23;;;;;;;0.00;0.00;;;20.30;99.90;;;;;;5082774;28;20221;-69
2022/08/19 08:26:52;;;;;;;0.00;0.00;;;20.30;99.90;;;;;;5082926;28;20582;-69
2022/08/19 08:29:19;;;;;;;0.00;0.00;;;20.30;99.90;;;;;;5070163;28;20310;-71
2022/08/19 08:31:47;;;;;;;0.00;0.00;;;20.30;99.90;;;;;;5073514;28;20656;-71
2022/08/19 08:34:15;;;;;;;0.00;0.00;;;20.30;99.90;;;;;;5063079;28;20210;-71
2022/08/19 08:36:44;;;;;;;0.00;0.00;;;20.30;99.90;;;;;;5071894;28;20202;-72
2022/08/19 08:39:13;;;;;;;0.00;0.00;;;20.30;99.90;;;;;;5058488;28;20226;-71
2022/08/19 08:41:52;;;;;;;0.00;0.00;;;20.30;99.90;;;;;;5071282;28;20260;-71
2022/08/19 08:44:23;;;;;;;0.00;0.00;;;20.30;99.90;;;;;;5071563;28;20214;-71
2022/08/19 08:46:55;;;;;;;0.00;0.00;;;20.30;99.90;;;;;;5074922;28;20202;-71
2022/08/19 08:49:32;;;;;;;0.00;0.00;;;20.30;99.90;;;;;;5070306;28;20201;-71
2022/08/19 08:52:03;;;;;;;0.00;0.00;;;20.30;99.90;;;;;;5079343;28;20198;-71
2022/08/19 08:54:36;;;;;;;0.00;0.00;;;20.30;99.90;;;;;;5073504;28;20209;-71
2022/08/19 08:57:08;;;;;;;0.00;0.00;;;20.40;99.90;;;;;;5078426;28;20203;-71
2022/08/19 08:59:40;;;;;;;0.00;0.00;;;20.40;99.90;;;;;;5066609;28;20228;-71
2022/08/19 09:02:09;;;;;;;0.00;0.00;;;20.40;99.90;;;;;;5097621;28;20217;-71
2022/08/19 09:04:37;;;;;;;0.00;0.00;;;20.50;99.90;;;;;;5080031;28;20222;-72
2022/08/19 09:07:22;;;;;;;0.00;0.00;;;20.50;99.90;;;;;;5071155;28;20297;-71
2022/08/19 09:09:52;;;;;;;0.00;0.00;;;20.60;99.90;;;;;;5066934;28;20199;-71
2022/08/19 09:12:26;;;;;;;0.00;0.00;;;20.60;99.90;;;;;;5073824;28;20199;-73
2022/08/19 09:15:00;;;;;;;0.00;0.00;;;20.60;99.90;;;;;;5067772;28;20209;-71
2022/08/19 09:17:32;;;;;;;0.00;0.00;;;20.60;99.90;;;;;;5072798;28;20267;-71
2022/08/19 09:20:04;;;;;;;0.00;0.00;;;20.70;99.90;;;;;;5071244;28;20246;-73
2022/08/19 09:22:31;;;;;;;0.00;0.00;;;20.70;99.90;;;;;;5078216;28;20198;-71
2022/08/19 09:24:58;;;;;;;0.00;0.00;;;20.70;99.90;;;;;;5076181;28;20203;-71
2022/08/19 09:27:27;;;;;;;0.00;0.00;;;20.70;99.90;;;;;;5075849;28;20283;-71
2022/08/19 09:29:55;;;;;;;0.00;0.00;;;20.80;99.90;;;;;;5065583;28;20262;-71
2022/08/19 09:32:23;;;;;;;0.00;0.00;;;20.80;99.90;;;;;;5070313;28;20736;-72
2022/08/19 09:34:54;;;;;;;0.00;0.00;;;20.90;99.90;;;;;;5066924;28;20206;-71
2022/08/19 09:37:22;;;;;;;0.00;0.00;;;20.90;99.90;;;;;;5066038;28;20218;-71
2022/08/19 09:39:49;;;;;;;0.00;0.00;;;20.90;99.90;;;;;;5078487;28;20319;-71
2022/08/19 09:42:16;;;;;;;0.00;0.00;;;20.90;99.90;;;;;;5075348;28;20662;-72
2022/08/19 09:44:43;;;;;;;0.00;0.00;;;21.00;99.90;;;;;;5066465;28;20199;-71
2022/08/19 09:47:13;;;;;;;0.00;0.00;;;21.00;99.90;;;;;;5064162;28;20232;-71
2022/08/19 09:49:41;;;;;;;0.00;0.00;;;21.10;99.90;;;;;;5069746;28;20206;-70
2022/08/19 09:52:10;;;;;;;0.00;0.00;;;21.20;99.90;;;;;;5057455;28;20217;-70
2022/08/19 09:54:37;;;;;;;0.00;0.00;;;21.30;99.90;;;;;;5069654;28;20191;-71
2022/08/19 09:57:04;;;;;;;0.00;0.00;;;21.40;99.90;;;;;;5074912;28;20283;-71
2022/08/19 09:59:32;;;;;;;0.00;0.00;;;21.60;99.90;;;;;;5070289;28;20242;-71
2022/08/19 10:01:59;;;;;;;0.00;0.00;;;21.80;99.90;;;;;;5075071;28;20671;-70
2022/08/19 10:05:47;;;;;;;0.00;0.00;;;21.90;99.90;;;;;;5067835;28;20198;-71
2022/08/19 10:07:15;;;;;;;0.00;0.00;;;21.90;99.90;;;;;;5074985;28;20221;-71
2022/08/19 10:09:42;;;;;;;0.00;0.00;;;22.00;99.90;;;;;;5076914;28;20213;-70
2022/08/19 10:12:10;;;;;;;0.00;0.00;;;22.00;99.90;;;;;;5081840;28;20662;-72
2022/08/19 10:14:37;;;;;;;0.00;0.00;;;22.00;99.90;;;;;;5081231;28;20244;-71
2022/08/19 10:17:04;;;;;;;0.00;0.00;;;22.00;99.90;;;;;;5075373;28;20804;-70
2022/08/19 10:19:35;;;;;;;0.00;0.00;;;22.00;99.90;;;;;;5078524;28;20306;-70
2022/08/19 10:22:07;;;;;;;0.00;0.00;;;21.90;99.90;;;;;;5066459;28;20191;-71
2022/08/19 10:24:35;;;;;;;0.00;0.00;;;21.90;99.90;;;;;;5076197;28;20251;-71
2022/08/19 10:27:03;;;;;;;0.00;0.00;;;21.90;99.90;;;;;;5071980;28;20210;-71
2022/08/19 10:29:31;;;;;;;0.00;0.00;;;21.90;99.90;;;;;;5066811;28;20191;-70
2022/08/19 10:31:59;;;;;;;0.00;0.00;;;22.00;99.90;;;;;;5070579;28;20203;-71
2022/08/19 10:34:27;;;;;;;0.00;0.00;;;22.00;99.90;;;;;;5080726;28;20252;-70
2022/08/19 10:36:56;;;;;;;0.00;0.00;;;22.10;99.90;;;;;;5070808;28;20209;-70
2022/08/19 10:39:23;;;;;;;0.00;0.00;;;22.10;99.90;;;;;;5061704;28;20201;-70
2022/08/19 10:41:50;;;;;;;0.00;0.00;;;22.10;99.90;;;;;;5075695;28;20202;-70
2022/08/19 10:44:17;;;;;;;0.00;0.00;;;22.00;99.90;;;;;;5084036;28;20738;-72
2022/08/19 10:46:46;;;;;;;0.00;0.00;;;22.00;99.90;;;;;;5073262;28;20235;-70
2022/08/19 10:49:13;;;;;;;0.00;0.00;;;22.00;99.90;;;;;;5076143;28;20217;-70
2022/08/19 10:57:09;;;;;;;0.00;0.00;;;22.10;99.90;;;;;;5074480;28;20262;-72
2022/08/19 10:59:36;;;;;;;0.00;0.00;;;22.20;99.90;;;;;;5076440;28;20241;-72
2022/08/19 11:02:05;;;;;;;0.00;0.00;;;22.30;99.90;;;;;;5072048;28;20199;-71
2022/08/19 11:04:33;;;;;;;0.00;0.00;;;22.40;99.90;;;;;;5073266;28;20294;-71
2022/08/19 11:06:59;;;;;;;0.00;0.00;;;22.40;99.90;;;;;;5065176;28;20194;-71
2022/08/19 11:09:28;;;;;;;0.00;0.00;;;22.40;99.90;;;;;;5073739;28;20198;-72
2022/08/19 11:11:56;;;;;;;0.00;0.00;;;22.50;99.90;;;;;;5068074;28;20203;-71
2022/08/19 11:14:25;;;;;;;0.00;0.00;;;22.50;99.90;;;;;;5066058;28;20194;-71
2022/08/19 11:16:55;;;;;;;0.00;0.00;;;22.50;99.90;;;;;;5076861;28;20224;-70
2022/08/19 11:19:23;;;;;;;0.00;0.00;;;22.50;99.90;;;;;;5077454;28;20198;-70
2022/08/19 11:21:52;;;;;;;0.00;0.00;;;22.50;99.90;;;;;;5064091;28;20214;-70
2022/08/19 11:24:22;;;;;;;0.00;0.00;;;22.60;99.90;;;;;;5073612;28;20202;-68
2022/08/19 11:26:53;;;;;;;0.00;0.00;;;22.60;99.90;;;;;;5070881;28;20242;-68
2022/08/19 11:29:25;;;;;;;0.00;0.00;;;22.70;99.90;;;;;;5069554;28;20300;-68
2022/08/19 11:31:53;;;;;;;0.00;0.00;;;22.80;99.90;;;;;;5068816;28;20201;-68
2022/08/19 11:34:22;;;;;;;0.00;0.00;;;22.90;99.90;;;;;;5070798;28;20288;-69
2022/08/19 11:36:51;;;;;;;0.00;0.00;;;23.00;99.90;;;;;;5073337;28;20306;-68
2022/08/19 11:39:21;;;;;;;0.00;0.00;;;23.10;99.90;;;;;;5079902;28;20204;-70
2022/08/19 11:41:50;;;;;;;0.00;0.00;;;23.20;99.90;;;;;;5059202;28;20218;-70
2022/08/19 11:44:17;;;;;;;0.00;0.00;;;23.20;99.90;;;;;;5071441;28;20203;-69
2022/08/19 11:46:46;;;;;;;0.00;0.00;;;23.20;99.90;;;;;;5072939;28;20205;-70
2022/08/19 11:49:14;;;;;;;0.00;0.00;;;23.30;99.90;;;;;;5068780;28;20197;-70
2022/08/19 11:51:42;;;;;;;0.00;0.00;;;23.30;99.90;;;;;;5074182;28;20324;-71
2022/08/19 11:54:10;;;;;;;0.00;0.00;;;23.30;99.90;;;;;;5087676;28;20202;-71
2022/08/19 11:56:38;;;;;;;0.00;0.00;;;23.30;99.90;;;;;;5074993;28;20213;-70
2022/08/19 11:59:07;;;;;;;0.00;0.00;;;23.30;99.90;;;;;;5075428;28;20250;-71
2022/08/19 12:01:34;;;;;;;0.00;0.00;;;23.40;99.90;;;;;;5075926;28;20224;-71
2022/08/19 12:04:01;;;;;;;0.00;0.00;;;23.50;99.90;;;;;;5075792;28;20198;-71
2022/08/19 12:06:31;;;;;;;0.00;0.00;;;23.60;99.90;;;;;;5066192;28;20264;-72
2022/08/19 12:08:59;;;;;;;0.00;0.00;;;23.70;99.90;;;;;;5074647;28;20325;-71
2022/08/19 12:11:27;;;;;;;0.00;0.00;;;23.80;99.90;;;;;;5068319;28;20194;-71
2022/08/19 12:13:54;;;;;;;0.00;0.00;;;23.80;99.90;;;;;;5083558;28;20215;-70
2022/08/19 12:16:24;;;;;;;0.00;0.00;;;23.90;99.90;;;;;;5069940;28;20259;-70
2022/08/19 12:18:52;;;;;;;0.00;0.00;;;24.00;99.90;;;;;;5075772;28;20218;-70
2022/08/19 12:21:22;;;;;;;0.00;0.00;;;24.10;99.90;;;;;;5077932;28;20217;-72
2022/08/19 12:23:51;;;;;;;0.00;0.00;;;24.10;99.90;;;;;;5076479;28;20233;-71
2022/08/19 12:26:18;;;;;;;0.00;0.00;;;24.10;99.90;;;;;;5075972;28;20198;-71
2022/08/19 12:28:47;;;;;;;0.00;0.00;;;24.10;99.90;;;;;;5069987;28;20215;-70
2022/08/19 12:31:16;;;;;;;0.00;0.00;;;24.10;99.90;;;;;;5072333;28;20194;-71
2022/08/19 12:33:45;;;;;;;0.00;0.00;;;24.20;99.90;;;;;;5066558;28;20206;-71
2022/08/19 12:36:13;;;;;;;0.00;0.00;;;24.20;99.90;;;;;;5067284;28;20205;-70
2022/08/19 12:38:40;;;;;;;0.00;0.00;;;24.30;99.90;;;;;;5068533;28;20263;-70
2022/08/19 12:41:10;;;;;;;0.00;0.00;;;24.40;99.90;;;;;;5079327;28;20221;-70
2022/08/19 12:43:37;;;;;;;0.00;0.00;;;24.50;99.90;;;;;;5074468;28;20198;-71
2022/08/19 12:46:05;;;;;;;0.00;0.00;;;24.70;99.90;;;;;;5072906;28;20314;-70
2022/08/19 12:48:32;;;;;;;0.00;0.00;;;24.70;99.90;;;;;;5075187;28;20213;-71
2022/08/19 12:51:01;;;;;;;0.00;0.00;;;24.70;99.90;;;;;;5071229;28;20225;-71
2022/08/19 12:53:28;;;;;;;0.00;0.00;;;24.80;99.90;;;;;;5073674;28;20198;-72
2022/08/19 12:55:57;;;;;;;0.00;0.00;;;24.90;99.90;;;;;;5077625;28;20285;-72
2022/08/19 12:58:24;;;;;;;0.00;0.00;;;24.80;99.90;;;;;;5078055;28;20248;-71
2022/08/19 13:00:50;;;;;;;0.00;0.00;;;24.70;99.90;;;;;;5076007;28;20257;-71
2022/08/19 13:03:17;;;;;;;0.00;0.00;;;24.60;99.90;;;;;;5077508;28;20297;-72
2022/08/19 13:05:44;;;;;;;0.00;0.00;;;24.60;99.90;;;;;;5070206;28;20468;-71
2022/08/19 13:08:13;;;;;;;0.00;0.00;;;24.50;99.90;;;;;;5075561;28;20226;-72
2022/08/19 13:10:39;;;;;;;0.00;0.00;;;24.30;99.90;;;;;;5073068;28;20193;-72
2022/08/19 13:13:09;;;;;;;0.00;0.00;;;24.30;99.90;;;;;;5078792;28;20214;-70
2022/08/19 13:15:39;;;;;;;0.00;0.00;;;24.40;99.90;;;;;;5066726;28;20198;-71
2022/08/19 13:18:08;;;;;;;0.00;0.00;;;24.40;99.90;;;;;;5077713;28;20230;-71
2022/08/19 13:20:37;;;;;;;0.00;0.00;;;24.40;99.90;;;;;;5073766;28;20230;-73